sensor_id;sensor_type;location;lat;lon;timestamp;P1;durP1;ratioP1;P2;durP2;ratioP2
5876;SDS011;2964;42.144;24.730;2022-09-12T00:00:10;9.27;;;8.57;;
5876;SDS011;2964;42.144;24.730;2022-09-12T00:02:37;10.00;;;9.13;;
5876;SDS011;2964;42.144;24.730;2022-09-12T00:05:04;9.83;;;8.97;;
5876;SDS011;2964;42.144;24.730;2022-09-12T00:07:31;10.63;;;9.53;;
5876;SDS011;2964;42.144;24.730;2022-09-12T00:09:59;9.47;;;8.67;;
5876;SDS011;2964;42.144;24.730;2022-09-12T00:12:26;10.57;;;9.67;;
5876;SDS011;2964;42.144;24.730;2022-09-12T00:14:52;9.13;;;8.53;;
5876;SDS011;2964;42.144;24.730;2022-09-12T00:17:20;9.33;;;8.70;;
5876;SDS011;2964;42.144;24.730;2022-09-12T00:19:47;9.20;;;8.60;;
5876;SDS011;2964;42.144;24.730;2022-09-12T00:22:14;9.03;;;8.43;;
5876;SDS011;2964;42.144;24.730;2022-09-12T00:24:41;10.50;;;9.77;;
5876;SDS011;2964;42.144;24.730;2022-09-12T00:27:07;11.60;;;9.87;;
5876;SDS011;2964;42.144;24.730;2022-09-12T00:29:34;10.80;;;9.90;;
5876;SDS011;2964;42.144;24.730;2022-09-12T00:32:01;11.97;;;10.73;;
5876;SDS011;2964;42.144;24.730;2022-09-12T00:34:29;13.13;;;10.03;;
5876;SDS011;2964;42.144;24.730;2022-09-12T00:36:56;11.17;;;9.83;;
5876;SDS011;2964;42.144;24.730;2022-09-12T00:39:22;11.13;;;10.07;;
5876;SDS011;2964;42.144;24.730;2022-09-12T00:41:49;12.60;;;11.33;;
5876;SDS011;2964;42.144;24.730;2022-09-12T00:47:10;12.67;;;11.37;;
5876;SDS011;2964;42.144;24.730;2022-09-12T00:49:43;11.53;;;10.73;;
5876;SDS011;2964;42.144;24.730;2022-09-12T00:52:14;11.87;;;10.60;;
5876;SDS011;2964;42.144;24.730;2022-09-12T00:54:46;12.40;;;11.37;;
5876;SDS011;2964;42.144;24.730;2022-09-12T00:57:18;10.77;;;9.87;;
5876;SDS011;2964;42.144;24.730;2022-09-12T00:59:49;12.43;;;11.37;;
5876;SDS011;2964;42.144;24.730;2022-09-12T01:02:21;12.47;;;11.37;;
5876;SDS011;2964;42.144;24.730;2022-09-12T01:04:50;11.60;;;10.60;;
5876;SDS011;2964;42.144;24.730;2022-09-12T01:07:17;13.10;;;11.97;;
5876;SDS011;2964;42.144;24.730;2022-09-12T01:09:45;10.50;;;9.80;;
5876;SDS011;2964;42.144;24.730;2022-09-12T01:12:12;11.70;;;10.67;;
5876;SDS011;2964;42.144;24.730;2022-09-12T01:14:40;11.00;;;10.00;;
5876;SDS011;2964;42.144;24.730;2022-09-12T01:17:09;11.17;;;10.43;;
5876;SDS011;2964;42.144;24.730;2022-09-12T01:19:46;11.37;;;10.27;;
5876;SDS011;2964;42.144;24.730;2022-09-12T01:22:36;10.10;;;9.47;;
5876;SDS011;2964;42.144;24.730;2022-09-12T01:25:18;10.90;;;9.87;;
5876;SDS011;2964;42.144;24.730;2022-09-12T01:27:58;11.07;;;10.27;;
5876;SDS011;2964;42.144;24.730;2022-09-12T01:30:48;11.53;;;10.77;;
5876;SDS011;2964;42.144;24.730;2022-09-12T01:33:26;12.60;;;11.10;;
5876;SDS011;2964;42.144;24.730;2022-09-12T01:36:21;11.53;;;10.70;;
5876;SDS011;2964;42.144;24.730;2022-09-12T01:38:59;11.73;;;10.93;;
5876;SDS011;2964;42.144;24.730;2022-09-12T01:41:28;11.00;;;10.30;;
5876;SDS011;2964;42.144;24.730;2022-09-12T01:44:08;12.37;;;11.43;;
5876;SDS011;2964;42.144;24.730;2022-09-12T01:46:42;10.73;;;9.80;;
5876;SDS011;2964;42.144;24.730;2022-09-12T01:49:14;10.97;;;10.17;;
5876;SDS011;2964;42.144;24.730;2022-09-12T01:51:47;10.30;;;9.67;;
5876;SDS011;2964;42.144;24.730;2022-09-12T01:54:24;11.50;;;10.70;;
5876;SDS011;2964;42.144;24.730;2022-09-12T01:56:56;11.80;;;11.00;;
5876;SDS011;2964;42.144;24.730;2022-09-12T01:59:28;10.90;;;10.07;;
5876;SDS011;2964;42.144;24.730;2022-09-12T02:02:01;13.90;;;11.20;;
5876;SDS011;2964;42.144;24.730;2022-09-12T02:04:34;11.07;;;10.37;;
5876;SDS011;2964;42.144;24.730;2022-09-12T02:07:07;12.37;;;11.40;;
5876;SDS011;2964;42.144;24.730;2022-09-12T02:09:41;10.90;;;10.20;;
5876;SDS011;2964;42.144;24.730;2022-09-12T02:12:14;11.00;;;10.30;;
5876;SDS011;2964;42.144;24.730;2022-09-12T02:14:47;10.70;;;9.80;;
5876;SDS011;2964;42.144;24.730;2022-09-12T02:17:18;9.73;;;9.00;;
5876;SDS011;2964;42.144;24.730;2022-09-12T02:19:48;10.17;;;8.93;;
5876;SDS011;2964;42.144;24.730;2022-09-12T02:22:21;10.73;;;9.43;;
5876;SDS011;2964;42.144;24.730;2022-09-12T02:24:53;9.00;;;8.40;;
5876;SDS011;2964;42.144;24.730;2022-09-12T02:27:22;10.03;;;9.17;;
5876;SDS011;2964;42.144;24.730;2022-09-12T02:29:53;10.43;;;9.47;;
5876;SDS011;2964;42.144;24.730;2022-09-12T02:32:23;10.67;;;9.77;;
5876;SDS011;2964;42.144;24.730;2022-09-12T02:34:57;8.87;;;8.37;;
5876;SDS011;2964;42.144;24.730;2022-09-12T02:37:31;9.37;;;8.83;;
5876;SDS011;2964;42.144;24.730;2022-09-12T02:40:09;10.10;;;9.40;;
5876;SDS011;2964;42.144;24.730;2022-09-12T02:42:35;10.43;;;9.80;;
5876;SDS011;2964;42.144;24.730;2022-09-12T02:45:03;10.00;;;9.30;;
5876;SDS011;2964;42.144;24.730;2022-09-12T02:47:33;8.27;;;7.73;;
5876;SDS011;2964;42.144;24.730;2022-09-12T02:50:04;9.23;;;8.63;;
5876;SDS011;2964;42.144;24.730;2022-09-12T02:52:32;9.13;;;8.53;;
5876;SDS011;2964;42.144;24.730;2022-09-12T02:54:59;8.20;;;7.70;;
5876;SDS011;2964;42.144;24.730;2022-09-12T02:57:28;7.87;;;7.40;;
5876;SDS011;2964;42.144;24.730;2022-09-12T02:59:56;8.70;;;8.10;;
5876;SDS011;2964;42.144;24.730;2022-09-12T03:02:28;8.87;;;8.37;;
5876;SDS011;2964;42.144;24.730;2022-09-12T03:05:19;9.90;;;9.07;;
5876;SDS011;2964;42.144;24.730;2022-09-12T03:07:59;8.63;;;8.23;;
5876;SDS011;2964;42.144;24.730;2022-09-12T03:10:39;8.23;;;7.67;;
5876;SDS011;2964;42.144;24.730;2022-09-12T03:13:17;8.23;;;7.80;;
5876;SDS011;2964;42.144;24.730;2022-09-12T03:15:51;7.63;;;6.93;;
5876;SDS011;2964;42.144;24.730;2022-09-12T03:18:34;7.93;;;7.20;;
5876;SDS011;2964;42.144;24.730;2022-09-12T03:21:10;7.70;;;7.20;;
5876;SDS011;2964;42.144;24.730;2022-09-12T03:23:45;7.03;;;6.60;;
5876;SDS011;2964;42.144;24.730;2022-09-12T03:26:26;7.77;;;7.17;;
5876;SDS011;2964;42.144;24.730;2022-09-12T03:28:57;7.90;;;7.30;;
5876;SDS011;2964;42.144;24.730;2022-09-12T03:31:26;8.77;;;7.50;;
5876;SDS011;2964;42.144;24.730;2022-09-12T03:33:54;6.80;;;6.50;;
5876;SDS011;2964;42.144;24.730;2022-09-12T03:36:22;6.50;;;6.10;;
5876;SDS011;2964;42.144;24.730;2022-09-12T03:38:51;6.20;;;5.90;;
5876;SDS011;2964;42.144;24.730;2022-09-12T03:41:18;7.07;;;6.57;;
5876;SDS011;2964;42.144;24.730;2022-09-12T03:43:45;6.50;;;6.07;;
5876;SDS011;2964;42.144;24.730;2022-09-12T03:46:12;7.37;;;6.87;;
5876;SDS011;2964;42.144;24.730;2022-09-12T03:48:39;6.27;;;5.60;;
5876;SDS011;2964;42.144;24.730;2022-09-12T03:51:08;7.17;;;6.67;;
5876;SDS011;2964;42.144;24.730;2022-09-12T03:53:36;5.63;;;5.33;;
5876;SDS011;2964;42.144;24.730;2022-09-12T03:56:06;6.43;;;6.03;;
5876;SDS011;2964;42.144;24.730;2022-09-12T03:58:34;5.90;;;5.53;;
5876;SDS011;2964;42.144;24.730;2022-09-12T04:01:05;5.70;;;5.40;;
5876;SDS011;2964;42.144;24.730;2022-09-12T04:03:36;6.20;;;5.73;;
5876;SDS011;2964;42.144;24.730;2022-09-12T04:06:03;5.90;;;5.50;;
5876;SDS011;2964;42.144;24.730;2022-09-12T04:08:31;6.60;;;5.77;;
5876;SDS011;2964;42.144;24.730;2022-09-12T04:11:02;5.77;;;5.47;;
5876;SDS011;2964;42.144;24.730;2022-09-12T04:13:29;7.00;;;6.30;;
5876;SDS011;2964;42.144;24.730;2022-09-12T04:15:56;6.63;;;6.10;;
5876;SDS011;2964;42.144;24.730;2022-09-12T04:18:23;6.93;;;6.33;;
5876;SDS011;2964;42.144;24.730;2022-09-12T04:20:50;6.30;;;5.80;;
5876;SDS011;2964;42.144;24.730;2022-09-12T04:23:17;6.50;;;6.00;;
5876;SDS011;2964;42.144;24.730;2022-09-12T04:25:53;8.10;;;6.10;;
5876;SDS011;2964;42.144;24.730;2022-09-12T04:28:20;6.20;;;5.80;;
5876;SDS011;2964;42.144;24.730;2022-09-12T04:30:47;5.20;;;4.93;;
5876;SDS011;2964;42.144;24.730;2022-09-12T04:33:14;5.63;;;5.23;;
5876;SDS011;2964;42.144;24.730;2022-09-12T04:35:40;6.03;;;5.60;;
5876;SDS011;2964;42.144;24.730;2022-09-12T04:38:09;6.13;;;5.73;;
5876;SDS011;2964;42.144;24.730;2022-09-12T04:40:36;7.13;;;5.37;;
5876;SDS011;2964;42.144;24.730;2022-09-12T04:43:04;5.53;;;5.10;;
5876;SDS011;2964;42.144;24.730;2022-09-12T04:45:31;9.40;;;5.10;;
5876;SDS011;2964;42.144;24.730;2022-09-12T04:47:58;5.23;;;4.83;;
5876;SDS011;2964;42.144;24.730;2022-09-12T04:50:26;6.20;;;5.70;;
5876;SDS011;2964;42.144;24.730;2022-09-12T04:52:53;9.00;;;8.10;;
5876;SDS011;2964;42.144;24.730;2022-09-12T04:55:20;6.53;;;5.93;;
5876;SDS011;2964;42.144;24.730;2022-09-12T04:57:50;5.50;;;5.10;;
5876;SDS011;2964;42.144;24.730;2022-09-12T05:00:18;5.30;;;4.80;;
5876;SDS011;2964;42.144;24.730;2022-09-12T05:02:45;4.77;;;4.57;;
5876;SDS011;2964;42.144;24.730;2022-09-12T05:05:12;5.17;;;4.77;;
5876;SDS011;2964;42.144;24.730;2022-09-12T05:07:39;5.43;;;4.63;;
5876;SDS011;2964;42.144;24.730;2022-09-12T05:10:06;4.73;;;4.43;;
5876;SDS011;2964;42.144;24.730;2022-09-12T05:12:34;4.30;;;3.77;;
5876;SDS011;2964;42.144;24.730;2022-09-12T05:15:01;6.50;;;3.80;;
5876;SDS011;2964;42.144;24.730;2022-09-12T05:17:30;4.53;;;4.10;;
5876;SDS011;2964;42.144;24.730;2022-09-12T05:19:56;4.10;;;3.80;;
5876;SDS011;2964;42.144;24.730;2022-09-12T05:22:23;5.00;;;4.70;;
5876;SDS011;2964;42.144;24.730;2022-09-12T05:24:50;4.57;;;4.37;;
5876;SDS011;2964;42.144;24.730;2022-09-12T05:27:17;6.63;;;4.57;;
5876;SDS011;2964;42.144;24.730;2022-09-12T05:29:44;4.30;;;4.10;;
5876;SDS011;2964;42.144;24.730;2022-09-12T05:32:10;3.65;;;3.35;;
5876;SDS011;2964;42.144;24.730;2022-09-12T05:34:39;4.50;;;3.85;;
5876;SDS011;2964;42.144;24.730;2022-09-12T05:37:06;3.38;;;3.28;;
5876;SDS011;2964;42.144;24.730;2022-09-12T05:39:32;3.25;;;3.00;;
5876;SDS011;2964;42.144;24.730;2022-09-12T05:41:59;3.53;;;3.33;;
5876;SDS011;2964;42.144;24.730;2022-09-12T05:44:26;3.45;;;3.25;;
5876;SDS011;2964;42.144;24.730;2022-09-12T05:46:55;3.05;;;2.95;;
5876;SDS011;2964;42.144;24.730;2022-09-12T05:49:21;3.85;;;3.63;;
5876;SDS011;2964;42.144;24.730;2022-09-12T05:51:49;4.90;;;3.00;;
5876;SDS011;2964;42.144;24.730;2022-09-12T05:54:17;3.92;;;3.50;;
5876;SDS011;2964;42.144;24.730;2022-09-12T05:56:45;5.00;;;3.70;;
5876;SDS011;2964;42.144;24.730;2022-09-12T05:59:13;3.53;;;3.28;;
5876;SDS011;2964;42.144;24.730;2022-09-12T06:01:41;4.05;;;3.80;;
5876;SDS011;2964;42.144;24.730;2022-09-12T06:04:08;3.40;;;3.13;;
5876;SDS011;2964;42.144;24.730;2022-09-12T06:06:36;3.45;;;3.25;;
5876;SDS011;2964;42.144;24.730;2022-09-12T06:09:07;3.42;;;3.30;;
5876;SDS011;2964;42.144;24.730;2022-09-12T06:11:34;3.65;;;3.35;;
5876;SDS011;2964;42.144;24.730;2022-09-12T06:14:04;3.45;;;3.25;;
5876;SDS011;2964;42.144;24.730;2022-09-12T06:16:32;4.40;;;3.45;;
5876;SDS011;2964;42.144;24.730;2022-09-12T06:19:00;2.90;;;2.33;;
5876;SDS011;2964;42.144;24.730;2022-09-12T06:21:30;4.43;;;2.42;;
5876;SDS011;2964;42.144;24.730;2022-09-12T06:23:58;4.55;;;2.53;;
5876;SDS011;2964;42.144;24.730;2022-09-12T06:26:26;2.85;;;2.60;;
5876;SDS011;2964;42.144;24.730;2022-09-12T06:28:54;3.20;;;2.88;;
5876;SDS011;2964;42.144;24.730;2022-09-12T06:31:24;8.23;;;3.47;;
5876;SDS011;2964;42.144;24.730;2022-09-12T06:33:53;5.47;;;3.10;;
5876;SDS011;2964;42.144;24.730;2022-09-12T06:36:23;3.60;;;3.30;;
5876;SDS011;2964;42.144;24.730;2022-09-12T06:38:54;5.22;;;2.95;;
5876;SDS011;2964;42.144;24.730;2022-09-12T06:41:22;3.58;;;3.38;;
5876;SDS011;2964;42.144;24.730;2022-09-12T06:43:50;3.47;;;3.15;;
5876;SDS011;2964;42.144;24.730;2022-09-12T06:46:17;3.53;;;3.35;;
5876;SDS011;2964;42.144;24.730;2022-09-12T06:48:44;2.90;;;2.70;;
5876;SDS011;2964;42.144;24.730;2022-09-12T06:51:11;2.75;;;2.63;;
5876;SDS011;2964;42.144;24.730;2022-09-12T06:53:39;3.42;;;3.22;;
5876;SDS011;2964;42.144;24.730;2022-09-12T06:56:08;4.25;;;3.95;;
5876;SDS011;2964;42.144;24.730;2022-09-12T06:58:36;4.65;;;3.17;;
5876;SDS011;2964;42.144;24.730;2022-09-12T07:01:05;2.97;;;2.72;;
5876;SDS011;2964;42.144;24.730;2022-09-12T07:03:34;2.90;;;2.70;;
5876;SDS011;2964;42.144;24.730;2022-09-12T07:06:02;3.90;;;2.92;;
5876;SDS011;2964;42.144;24.730;2022-09-12T07:08:30;2.58;;;2.38;;
5876;SDS011;2964;42.144;24.730;2022-09-12T07:10:57;3.38;;;3.20;;
5876;SDS011;2964;42.144;24.730;2022-09-12T07:13:25;3.97;;;3.65;;
5876;SDS011;2964;42.144;24.730;2022-09-12T07:15:52;2.83;;;2.63;;
5876;SDS011;2964;42.144;24.730;2022-09-12T07:18:20;3.13;;;2.92;;
5876;SDS011;2964;42.144;24.730;2022-09-12T07:20:47;6.28;;;2.45;;
5876;SDS011;2964;42.144;24.730;2022-09-12T07:23:14;5.88;;;3.63;;
5876;SDS011;2964;42.144;24.730;2022-09-12T07:25:41;2.97;;;2.88;;
5876;SDS011;2964;42.144;24.730;2022-09-12T07:28:08;4.00;;;3.20;;
5876;SDS011;2964;42.144;24.730;2022-09-12T07:30:35;2.85;;;2.75;;
5876;SDS011;2964;42.144;24.730;2022-09-12T07:33:03;3.25;;;3.05;;
5876;SDS011;2964;42.144;24.730;2022-09-12T07:35:32;5.18;;;3.17;;
5876;SDS011;2964;42.144;24.730;2022-09-12T07:37:59;2.78;;;2.22;;
5876;SDS011;2964;42.144;24.730;2022-09-12T07:40:26;2.92;;;2.67;;
5876;SDS011;2964;42.144;24.730;2022-09-12T07:42:52;3.13;;;2.67;;
5876;SDS011;2964;42.144;24.730;2022-09-12T07:45:19;3.03;;;2.78;;
5876;SDS011;2964;42.144;24.730;2022-09-12T07:47:46;4.50;;;3.47;;
5876;SDS011;2964;42.144;24.730;2022-09-12T07:50:12;3.00;;;2.90;;
5876;SDS011;2964;42.144;24.730;2022-09-12T07:52:41;2.70;;;2.60;;
5876;SDS011;2964;42.144;24.730;2022-09-12T07:55:07;3.15;;;2.80;;
5876;SDS011;2964;42.144;24.730;2022-09-12T07:57:34;4.40;;;2.60;;
5876;SDS011;2964;42.144;24.730;2022-09-12T08:00:02;3.00;;;2.90;;
5876;SDS011;2964;42.144;24.730;2022-09-12T08:02:29;3.47;;;3.17;;
5876;SDS011;2964;42.144;24.730;2022-09-12T08:04:56;3.08;;;2.75;;
5876;SDS011;2964;42.144;24.730;2022-09-12T08:07:23;2.67;;;2.40;;
5876;SDS011;2964;42.144;24.730;2022-09-12T08:09:51;4.00;;;3.70;;
5876;SDS011;2964;42.144;24.730;2022-09-12T08:12:18;3.65;;;3.35;;
5876;SDS011;2964;42.144;24.730;2022-09-12T08:14:45;3.13;;;2.97;;
5876;SDS011;2964;42.144;24.730;2022-09-12T08:17:12;3.33;;;3.05;;
5876;SDS011;2964;42.144;24.730;2022-09-12T08:19:39;4.38;;;4.15;;
5876;SDS011;2964;42.144;24.730;2022-09-12T08:22:06;3.88;;;3.53;;
5876;SDS011;2964;42.144;24.730;2022-09-12T08:24:33;2.92;;;2.83;;
5876;SDS011;2964;42.144;24.730;2022-09-12T08:27:01;4.32;;;3.90;;
5876;SDS011;2964;42.144;24.730;2022-09-12T08:29:28;3.13;;;3.03;;
5876;SDS011;2964;42.144;24.730;2022-09-12T08:31:54;7.38;;;2.95;;
5876;SDS011;2964;42.144;24.730;2022-09-12T08:34:21;4.65;;;4.28;;
5876;SDS011;2964;42.144;24.730;2022-09-12T08:36:49;2.92;;;2.78;;
5876;SDS011;2964;42.144;24.730;2022-09-12T08:39:18;3.60;;;3.40;;
5876;SDS011;2964;42.144;24.730;2022-09-12T08:41:46;3.00;;;2.90;;
5876;SDS011;2964;42.144;24.730;2022-09-12T08:44:19;4.32;;;3.28;;
5876;SDS011;2964;42.144;24.730;2022-09-12T08:47:09;2.65;;;2.47;;
5876;SDS011;2964;42.144;24.730;2022-09-12T08:49:45;3.17;;;3.08;;
5876;SDS011;2964;42.144;24.730;2022-09-12T08:52:18;3.45;;;3.17;;
5876;SDS011;2964;42.144;24.730;2022-09-12T08:54:49;3.67;;;3.15;;
5876;SDS011;2964;42.144;24.730;2022-09-12T08:57:29;3.55;;;3.35;;
5876;SDS011;2964;42.144;24.730;2022-09-12T09:00:02;4.63;;;4.38;;
5876;SDS011;2964;42.144;24.730;2022-09-12T09:02:42;3.72;;;3.63;;
5876;SDS011;2964;42.144;24.730;2022-09-12T09:05:21;4.40;;;4.20;;
5876;SDS011;2964;42.144;24.730;2022-09-12T09:10:47;3.80;;;3.53;;
5876;SDS011;2964;42.144;24.730;2022-09-12T09:13:26;3.83;;;3.47;;
5876;SDS011;2964;42.144;24.730;2022-09-12T09:16:23;5.15;;;4.95;;
5876;SDS011;2964;42.144;24.730;2022-09-12T09:18:54;3.63;;;3.47;;
5876;SDS011;2964;42.144;24.730;2022-09-12T09:21:24;4.30;;;4.18;;
5876;SDS011;2964;42.144;24.730;2022-09-12T09:23:57;5.80;;;3.10;;
5876;SDS011;2964;42.144;24.730;2022-09-12T09:26:28;4.70;;;4.05;;
5876;SDS011;2964;42.144;24.730;2022-09-12T09:29:05;4.20;;;3.92;;
5876;SDS011;2964;42.144;24.730;2022-09-12T09:31:41;3.30;;;3.20;;
5876;SDS011;2964;42.144;24.730;2022-09-12T09:34:12;3.10;;;3.00;;
5876;SDS011;2964;42.144;24.730;2022-09-12T09:36:46;4.03;;;3.45;;
5876;SDS011;2964;42.144;24.730;2022-09-12T09:39:19;3.20;;;3.10;;
5876;SDS011;2964;42.144;24.730;2022-09-12T09:42:02;5.57;;;3.10;;
5876;SDS011;2964;42.144;24.730;2022-09-12T09:44:39;4.25;;;3.70;;
5876;SDS011;2964;42.144;24.730;2022-09-12T09:47:09;3.72;;;3.42;;
5876;SDS011;2964;42.144;24.730;2022-09-12T09:49:37;3.22;;;3.03;;
5876;SDS011;2964;42.144;24.730;2022-09-12T09:52:04;7.13;;;3.28;;
5876;SDS011;2964;42.144;24.730;2022-09-12T09:54:34;2.97;;;2.70;;
5876;SDS011;2964;42.144;24.730;2022-09-12T09:57:05;2.25;;;2.00;;
5876;SDS011;2964;42.144;24.730;2022-09-12T10:00:20;4.50;;;3.70;;
5876;SDS011;2964;42.144;24.730;2022-09-12T10:03:00;3.47;;;3.38;;
5876;SDS011;2964;42.144;24.730;2022-09-12T10:05:31;3.35;;;3.15;;
5876;SDS011;2964;42.144;24.730;2022-09-12T10:08:01;5.20;;;3.42;;
5876;SDS011;2964;42.144;24.730;2022-09-12T10:10:30;3.40;;;3.22;;
5876;SDS011;2964;42.144;24.730;2022-09-12T10:13:07;3.05;;;2.75;;
5876;SDS011;2964;42.144;24.730;2022-09-12T10:15:35;3.03;;;2.90;;
5876;SDS011;2964;42.144;24.730;2022-09-12T10:18:03;3.90;;;3.47;;
5876;SDS011;2964;42.144;24.730;2022-09-12T10:20:32;3.28;;;3.17;;
5876;SDS011;2964;42.144;24.730;2022-09-12T10:23:00;4.43;;;4.20;;
5876;SDS011;2964;42.144;24.730;2022-09-12T10:25:44;3.40;;;3.30;;
5876;SDS011;2964;42.144;24.730;2022-09-12T10:28:12;3.35;;;3.17;;
5876;SDS011;2964;42.144;24.730;2022-09-12T10:30:51;4.93;;;4.50;;
5876;SDS011;2964;42.144;24.730;2022-09-12T10:33:21;6.20;;;3.45;;
5876;SDS011;2964;42.144;24.730;2022-09-12T10:35:51;4.10;;;3.90;;
5876;SDS011;2964;42.144;24.730;2022-09-12T10:38:20;4.82;;;4.60;;
5876;SDS011;2964;42.144;24.730;2022-09-12T10:40:54;4.43;;;4.22;;
5876;SDS011;2964;42.144;24.730;2022-09-12T10:43:25;3.25;;;3.10;;
5876;SDS011;2964;42.144;24.730;2022-09-12T10:45:55;2.90;;;2.80;;
5876;SDS011;2964;42.144;24.730;2022-09-12T10:48:26;3.55;;;3.45;;
5876;SDS011;2964;42.144;24.730;2022-09-12T10:50:54;3.42;;;3.20;;
5876;SDS011;2964;42.144;24.730;2022-09-12T10:53:22;3.22;;;3.13;;
5876;SDS011;2964;42.144;24.730;2022-09-12T11:01:37;4.63;;;4.35;;
5876;SDS011;2964;42.144;24.730;2022-09-12T11:04:17;3.60;;;3.40;;
5876;SDS011;2964;42.144;24.730;2022-09-12T11:06:52;4.75;;;4.55;;
5876;SDS011;2964;42.144;24.730;2022-09-12T11:09:39;5.28;;;3.63;;
5876;SDS011;2964;42.144;24.730;2022-09-12T11:12:14;6.28;;;3.20;;
5876;SDS011;2964;42.144;24.730;2022-09-12T11:14:54;3.20;;;3.10;;
5876;SDS011;2964;42.144;24.730;2022-09-12T11:17:32;3.80;;;3.60;;
5876;SDS011;2964;42.144;24.730;2022-09-12T11:20:12;4.50;;;3.50;;
5876;SDS011;2964;42.144;24.730;2022-09-12T11:23:04;3.20;;;2.88;;
5876;SDS011;2964;42.144;24.730;2022-09-12T11:25:55;3.15;;;2.55;;
5876;SDS011;2964;42.144;24.730;2022-09-12T11:28:30;3.33;;;3.22;;
5876;SDS011;2964;42.144;24.730;2022-09-12T11:31:06;4.20;;;3.95;;
5876;SDS011;2964;42.144;24.730;2022-09-12T11:33:47;3.92;;;2.97;;
5876;SDS011;2964;42.144;24.730;2022-09-12T11:36:22;7.25;;;2.95;;
5876;SDS011;2964;42.144;24.730;2022-09-12T11:39:00;5.45;;;2.97;;
5876;SDS011;2964;42.144;24.730;2022-09-12T11:41:30;3.92;;;3.72;;
5876;SDS011;2964;42.144;24.730;2022-09-12T11:44:01;6.65;;;3.45;;
5876;SDS011;2964;42.144;24.730;2022-09-12T11:46:36;4.30;;;2.95;;
5876;SDS011;2964;42.144;24.730;2022-09-12T11:49:05;4.45;;;3.03;;
5876;SDS011;2964;42.144;24.730;2022-09-12T11:51:44;3.72;;;3.63;;
5876;SDS011;2964;42.144;24.730;2022-09-12T11:54:17;3.50;;;3.25;;
5876;SDS011;2964;42.144;24.730;2022-09-12T11:56:48;3.72;;;3.58;;
5876;SDS011;2964;42.144;24.730;2022-09-12T11:59:25;5.93;;;3.33;;
5876;SDS011;2964;42.144;24.730;2022-09-12T12:01:58;4.50;;;3.60;;
5876;SDS011;2964;42.144;24.730;2022-09-12T12:04:31;3.10;;;2.85;;
5876;SDS011;2964;42.144;24.730;2022-09-12T12:07:05;3.08;;;2.88;;
5876;SDS011;2964;42.144;24.730;2022-09-12T12:09:33;4.35;;;2.70;;
5876;SDS011;2964;42.144;24.730;2022-09-12T12:12:00;3.08;;;2.85;;
5876;SDS011;2964;42.144;24.730;2022-09-12T12:14:34;3.15;;;2.95;;
5876;SDS011;2964;42.144;24.730;2022-09-12T12:17:11;2.78;;;2.58;;
5876;SDS011;2964;42.144;24.730;2022-09-12T12:19:40;3.35;;;3.25;;
5876;SDS011;2964;42.144;24.730;2022-09-12T12:22:19;3.00;;;2.90;;
5876;SDS011;2964;42.144;24.730;2022-09-12T12:25:01;2.97;;;2.88;;
5876;SDS011;2964;42.144;24.730;2022-09-12T12:36:40;7.80;;;4.55;;
5876;SDS011;2964;42.144;24.730;2022-09-12T12:51:39;3.47;;;3.30;;
5876;SDS011;2964;42.144;24.730;2022-09-12T12:54:32;3.35;;;3.20;;
5876;SDS011;2964;42.144;24.730;2022-09-12T13:00:27;3.00;;;2.90;;
5876;SDS011;2964;42.144;24.730;2022-09-12T13:02:56;3.28;;;3.08;;
5876;SDS011;2964;42.144;24.730;2022-09-12T13:05:28;3.38;;;3.17;;
5876;SDS011;2964;42.144;24.730;2022-09-12T13:08:04;3.33;;;3.13;;
5876;SDS011;2964;42.144;24.730;2022-09-12T13:10:35;4.00;;;3.78;;
5876;SDS011;2964;42.144;24.730;2022-09-12T13:13:03;3.72;;;3.50;;
5876;SDS011;2964;42.144;24.730;2022-09-12T13:18:26;3.38;;;3.28;;
5876;SDS011;2964;42.144;24.730;2022-09-12T13:21:01;3.03;;;2.92;;
5876;SDS011;2964;42.144;24.730;2022-09-12T13:23:34;4.32;;;4.13;;
5876;SDS011;2964;42.144;24.730;2022-09-12T13:26:01;4.10;;;3.80;;
5876;SDS011;2964;42.144;24.730;2022-09-12T13:28:30;4.85;;;3.65;;
5876;SDS011;2964;42.144;24.730;2022-09-12T13:30:58;3.53;;;3.42;;
5876;SDS011;2964;42.144;24.730;2022-09-12T13:33:32;3.83;;;3.72;;
5876;SDS011;2964;42.144;24.730;2022-09-12T13:39:13;5.45;;;5.07;;
5876;SDS011;2964;42.144;24.730;2022-09-12T13:41:51;4.35;;;4.05;;
5876;SDS011;2964;42.144;24.730;2022-09-12T13:44:29;4.35;;;4.20;;
5876;SDS011;2964;42.144;24.730;2022-09-12T13:46:58;4.70;;;4.30;;
5876;SDS011;2964;42.144;24.730;2022-09-12T13:49:28;6.30;;;3.92;;
5876;SDS011;2964;42.144;24.730;2022-09-12T13:52:02;4.13;;;4.03;;
5876;SDS011;2964;42.144;24.730;2022-09-12T13:54:31;5.10;;;4.90;;
5876;SDS011;2964;42.144;24.730;2022-09-12T13:56:59;4.90;;;4.50;;
5876;SDS011;2964;42.144;24.730;2022-09-12T13:59:25;5.38;;;5.05;;
5876;SDS011;2964;42.144;24.730;2022-09-12T14:01:52;4.95;;;4.65;;
5876;SDS011;2964;42.144;24.730;2022-09-12T14:04:20;5.38;;;4.90;;
5876;SDS011;2964;42.144;24.730;2022-09-12T14:07:08;6.03;;;5.70;;
5876;SDS011;2964;42.144;24.730;2022-09-12T14:09:39;5.90;;;5.43;;
5876;SDS011;2964;42.144;24.730;2022-09-12T14:12:12;5.53;;;4.82;;
5876;SDS011;2964;42.144;24.730;2022-09-12T14:14:46;6.00;;;5.55;;
5876;SDS011;2964;42.144;24.730;2022-09-12T14:17:16;6.13;;;5.65;;
5876;SDS011;2964;42.144;24.730;2022-09-12T14:19:43;4.95;;;4.65;;
5876;SDS011;2964;42.144;24.730;2022-09-12T14:22:13;7.68;;;5.55;;
5876;SDS011;2964;42.144;24.730;2022-09-12T14:24:42;6.43;;;5.85;;
5876;SDS011;2964;42.144;24.730;2022-09-12T14:27:16;5.82;;;5.43;;
5876;SDS011;2964;42.144;24.730;2022-09-12T14:29:44;5.53;;;4.97;;
5876;SDS011;2964;42.144;24.730;2022-09-12T14:32:17;5.90;;;5.60;;
5876;SDS011;2964;42.144;24.730;2022-09-12T14:37:30;5.50;;;5.20;;
5876;SDS011;2964;42.144;24.730;2022-09-12T14:39:57;5.95;;;5.65;;
5876;SDS011;2964;42.144;24.730;2022-09-12T14:42:25;6.20;;;5.90;;
5876;SDS011;2964;42.144;24.730;2022-09-12T14:44:56;6.30;;;5.50;;
5876;SDS011;2964;42.144;24.730;2022-09-12T14:47:27;6.13;;;5.55;;
5876;SDS011;2964;42.144;24.730;2022-09-12T14:50:00;5.93;;;5.53;;
5876;SDS011;2964;42.144;24.730;2022-09-12T14:52:29;6.63;;;6.32;;
5876;SDS011;2964;42.144;24.730;2022-09-12T14:54:59;6.00;;;5.53;;
5876;SDS011;2964;42.144;24.730;2022-09-12T14:57:30;6.85;;;6.20;;
5876;SDS011;2964;42.144;24.730;2022-09-12T15:00:13;6.72;;;6.32;;
5876;SDS011;2964;42.144;24.730;2022-09-12T15:02:45;7.45;;;6.90;;
5876;SDS011;2964;42.144;24.730;2022-09-12T15:05:17;6.13;;;5.82;;
5876;SDS011;2964;42.144;24.730;2022-09-12T15:07:51;7.00;;;6.38;;
5876;SDS011;2964;42.144;24.730;2022-09-12T15:10:21;6.13;;;5.93;;
5876;SDS011;2964;42.144;24.730;2022-09-12T15:13:02;5.63;;;5.32;;
5876;SDS011;2964;42.144;24.730;2022-09-12T15:15:38;6.68;;;6.13;;
5876;SDS011;2964;42.144;24.730;2022-09-12T15:18:09;6.80;;;6.30;;
5876;SDS011;2964;42.144;24.730;2022-09-12T15:20:37;6.70;;;6.00;;
5876;SDS011;2964;42.144;24.730;2022-09-12T15:23:09;6.55;;;6.15;;
5876;SDS011;2964;42.144;24.730;2022-09-12T15:25:41;6.30;;;6.00;;
5876;SDS011;2964;42.144;24.730;2022-09-12T15:28:12;6.30;;;5.22;;
5876;SDS011;2964;42.144;24.730;2022-09-12T15:30:42;7.85;;;7.07;;
5876;SDS011;2964;42.144;24.730;2022-09-12T15:33:09;6.65;;;6.25;;
5876;SDS011;2964;42.144;24.730;2022-09-12T15:35:37;6.07;;;5.78;;
5876;SDS011;2964;42.144;24.730;2022-09-12T15:38:04;5.63;;;5.32;;
5876;SDS011;2964;42.144;24.730;2022-09-12T15:40:32;7.25;;;6.63;;
5876;SDS011;2964;42.144;24.730;2022-09-12T15:42:59;5.63;;;5.32;;
5876;SDS011;2964;42.144;24.730;2022-09-12T15:45:26;6.30;;;5.90;;
5876;SDS011;2964;42.144;24.730;2022-09-12T15:47:55;5.45;;;5.20;;
5876;SDS011;2964;42.144;24.730;2022-09-12T15:50:22;6.78;;;6.05;;
5876;SDS011;2964;42.144;24.730;2022-09-12T15:52:49;5.18;;;4.97;;
5876;SDS011;2964;42.144;24.730;2022-09-12T15:55:17;5.78;;;5.38;;
5876;SDS011;2964;42.144;24.730;2022-09-12T15:57:46;5.38;;;4.93;;
5876;SDS011;2964;42.144;24.730;2022-09-12T16:00:14;8.02;;;7.72;;
5876;SDS011;2964;42.144;24.730;2022-09-12T16:02:42;5.47;;;5.20;;
5876;SDS011;2964;42.144;24.730;2022-09-12T16:05:10;5.15;;;4.95;;